Time,TemperatureF,DewpointF,PressureIn,WindDirection,WindDirectionDegrees,WindSpeedMPH,WindSpeedGustMPH,Humidity,HourlyPrecipIn,Conditions,Clouds,dailyrainin,SoftwareType,DateUTC
2013-11-30 00:05:00,53.4,51.0,30.12,West,274,0.0,0.0,90,0.00,,,0.00,weatherlink.com 1.10,2013-11-30 08:05:00,
2013-11-30 00:20:00,53.1,50.0,30.12,West,274,0.0,0.0,89,0.00,,,0.00,weatherlink.com 1.10,2013-11-30 08:20:00,
2013-11-30 00:35:00,52.7,50.0,30.12,West,274,0.0,0.0,90,0.00,,,0.00,weatherlink.com 1.10,2013-11-30 08:35:00,
2013-11-30 00:51:00,52.7,50.0,30.12,West,274,0.0,1.0,90,0.00,,,0.00,weatherlink.com 1.10,2013-11-30 08:51:00,
2013-11-30 01:06:00,52.3,50.0,30.12,West,274,0.0,0.0,90,0.00,,,0.00,weatherlink.com 1.10,2013-11-30 09:06:00,
2013-11-30 01:21:00,52.0,49.0,30.12,West,274,0.0,0.0,90,0.00,,,0.00,weatherlink.com 1.10,2013-11-30 09:21:00,
2013-11-30 01:36:00,51.6,49.0,30.12,West,274,0.0,0.0,90,0.00,,,0.00,weatherlink.com 1.10,2013-11-30 09:36:00,
2013-11-30 01:51:00,51.4,49.0,30.12,West,274,0.0,0.0,90,0.00,,,0.00,weatherlink.com 1.10,2013-11-30 09:51:00,
2013-11-30 02:06:00,51.8,49.0,30.12,West,274,0.0,0.0,91,0.00,,,0.00,weatherlink.com 1.10,2013-11-30 10:06:00,
2013-11-30 02:21:00,52.2,50.0,30.12,West,274,0.0,0.0,91,0.00,,,0.00,weatherlink.com 1.10,2013-11-30 10:21:00,
2013-11-30 02:36:00,52.4,50.0,30.12,West,274,0.0,0.0,91,0.00,,,0.00,weatherlink.com 1.10,2013-11-30 10:36:00,
2013-11-30 02:51:00,52.6,50.0,30.12,West,274,0.0,0.0,91,0.00,,,0.00,weatherlink.com 1.10,2013-11-30 10:51:00,
2013-11-30 03:06:00,52.9,50.0,30.12,West,274,0.0,0.0,91,0.00,,,0.00,weatherlink.com 1.10,2013-11-30 11:06:00,
2013-11-30 03:21:00,53.1,51.0,30.12,West,274,0.0,0.0,91,0.00,,,0.00,weatherlink.com 1.10,2013-11-30 11:21:00,
2013-11-30 03:36:00,53.1,51.0,30.11,West,274,0.0,0.0,91,0.00,,,0.00,weatherlink.com 1.10,2013-11-30 11:36:00,
2013-11-30 03:51:00,53.2,51.0,30.11,West,274,0.0,0.0,91,0.00,,,0.00,weatherlink.com 1.10,2013-11-30 11:51:00,
2013-11-30 04:06:00,53.4,51.0,30.11,West,275,0.0,0.0,91,0.00,,,0.00,weatherlink.com 1.10,2013-11-30 12:06:00,
2013-11-30 04:21:00,53.6,51.0,30.11,West,274,0.0,0.0,91,0.00,,,0.00,weatherlink.com 1.10,2013-11-30 12:21:00,
2013-11-30 04:36:00,53.3,51.0,30.12,West,274,0.0,0.0,91,0.00,,,0.00,weatherlink.com 1.10,2013-11-30 12:36:00,
2013-11-30 04:51:00,52.9,50.0,30.12,West,274,0.0,0.0,91,0.00,,,0.00,weatherlink.com 1.10,2013-11-30 12:51:00,
2013-11-30 05:06:00,52.6,50.0,30.12,West,274,0.0,0.0,91,0.00,,,0.00,weatherlink.com 1.10,2013-11-30 13:06:00,
2013-11-30 05:21:00,52.4,50.0,30.12,West,274,0.0,0.0,91,0.00,,,0.00,weatherlink.com 1.10,2013-11-30 13:21:00,
2013-11-30 05:36:00,52.0,50.0,30.12,West,274,0.0,0.0,91,0.00,,,0.00,weatherlink.com 1.10,2013-11-30 13:36:00,
2013-11-30 05:51:00,51.9,49.0,30.12,West,274,0.0,0.0,91,0.00,,,0.00,weatherlink.com 1.10,2013-11-30 13:51:00,
2013-11-30 06:06:00,51.6,49.0,30.13,West,274,0.0,0.0,91,0.00,,,0.00,weatherlink.com 1.10,2013-11-30 14:06:00,
2013-11-30 06:21:00,51.5,49.0,30.13,West,275,0.0,0.0,91,0.00,,,0.00,weatherlink.com 1.10,2013-11-30 14:21:00,
2013-11-30 06:36:00,51.6,49.0,30.13,West,276,0.0,0.0,91,0.00,,,0.00,weatherlink.com 1.10,2013-11-30 14:36:00,
2013-11-30 06:51:00,51.4,49.0,30.13,West,276,0.0,0.0,91,0.00,,,0.00,weatherlink.com 1.10,2013-11-30 14:51:00,
2013-11-30 07:06:00,51.4,49.0,30.14,West,276,0.0,0.0,91,0.00,,,0.00,weatherlink.com 1.10,2013-11-30 15:06:00,
2013-11-30 07:21:00,51.6,49.0,30.14,West,276,0.0,0.0,91,0.00,,,0.00,weatherlink.com 1.10,2013-11-30 15:21:00,
2013-11-30 07:36:00,52.0,50.0,30.14,West,276,0.0,0.0,92,0.00,,,0.00,weatherlink.com 1.10,2013-11-30 15:36:00,
2013-11-30 07:51:00,52.3,50.0,30.14,West,276,0.0,0.0,92,0.00,,,0.00,weatherlink.com 1.10,2013-11-30 15:51:00,
2013-11-30 08:06:00,52.7,51.0,30.14,West,276,0.0,0.0,92,0.00,,,0.00,weatherlink.com 1.10,2013-11-30 16:06:00,
2013-11-30 08:21:00,54.5,52.0,30.14,West,274,0.0,2.0,92,0.00,,,0.00,weatherlink.com 1.10,2013-11-30 16:21:00,
2013-11-30 08:36:00,56.3,54.0,30.14,West,278,1.0,1.0,92,0.00,,,0.00,weatherlink.com 1.10,2013-11-30 16:36:00,
2013-11-30 08:51:00,58.2,55.0,30.15,WNW,286,1.0,3.0,90,0.00,,,0.00,weatherlink.com 1.10,2013-11-30 16:51:00,
2013-11-30 09:06:00,61.0,56.0,30.14,West,281,0.0,1.0,82,0.00,,,0.00,weatherlink.com 1.10,2013-11-30 17:06:00,
2013-11-30 09:21:00,63.0,54.0,30.14,West,272,2.0,3.0,72,0.00,,,0.00,weatherlink.com 1.10,2013-11-30 17:21:00,
2013-11-30 09:36:00,64.4,53.0,30.14,West,279,2.0,5.0,67,0.00,,,0.00,weatherlink.com 1.10,2013-11-30 17:36:00,
2013-11-30 09:51:00,66.6,53.0,30.14,WNW,284,2.0,5.0,63,0.00,,,0.00,weatherlink.com 1.10,2013-11-30 17:51:00,
2013-11-30 10:06:00,67.7,53.0,30.14,WNW,302,2.0,5.0,59,0.00,,,0.00,weatherlink.com 1.10,2013-11-30 18:06:00,
2013-11-30 10:21:00,69.1,51.0,30.14,West,281,3.0,4.0,53,0.00,,,0.00,weatherlink.com 1.10,2013-11-30 18:21:00,
2013-11-30 10:37:00,69.8,51.0,30.13,NW,318,3.0,3.0,52,0.00,,,0.00,weatherlink.com 1.10,2013-11-30 18:37:00,
2013-11-30 10:52:00,71.0,48.0,30.12,WNW,286,2.0,4.0,44,0.00,,,0.00,weatherlink.com 1.10,2013-11-30 18:52:00,
2013-11-30 11:07:00,72.2,50.0,30.11,NW,313,1.0,4.0,45,0.00,,,0.00,weatherlink.com 1.10,2013-11-30 19:07:00,
2013-11-30 11:22:00,73.5,48.0,30.10,NW,318,2.0,4.0,41,0.00,,,0.00,weatherlink.com 1.10,2013-11-30 19:22:00,
2013-11-30 11:37:00,73.9,49.0,30.09,NW,305,2.0,6.0,41,0.00,,,0.00,weatherlink.com 1.10,2013-11-30 19:37:00,
2013-11-30 11:52:00,74.2,48.0,30.08,West,278,2.0,6.0,39,0.00,,,0.00,weatherlink.com 1.10,2013-11-30 19:52:00,
2013-11-30 12:07:00,75.9,46.0,30.08,WNW,284,4.0,7.0,35,0.00,,,0.00,weatherlink.com 1.10,2013-11-30 20:07:00,
2013-11-30 12:22:00,75.6,45.0,30.07,WNW,287,5.0,8.0,34,0.00,,,0.00,weatherlink.com 1.10,2013-11-30 20:22:00,
2013-11-30 12:37:00,75.4,46.0,30.06,West,269,3.0,7.0,35,0.00,,,0.00,weatherlink.com 1.10,2013-11-30 20:37:00,
2013-11-30 12:52:00,75.3,46.0,30.05,WNW,290,2.0,6.0,36,0.00,,,0.00,weatherlink.com 1.10,2013-11-30 20:52:00,
2013-11-30 13:07:00,75.7,46.0,30.05,West,278,2.0,7.0,35,0.00,,,0.00,weatherlink.com 1.10,2013-11-30 21:07:00,
2013-11-30 13:22:00,76.9,46.0,30.04,NNW,330,5.0,9.0,33,0.00,,,0.00,weatherlink.com 1.10,2013-11-30 21:22:00,
2013-11-30 13:37:00,76.7,45.0,30.03,NW,325,2.0,7.0,33,0.00,,,0.00,weatherlink.com 1.10,2013-11-30 21:37:00,
2013-11-30 13:52:00,76.1,46.0,30.03,WNW,290,4.0,9.0,34,0.00,,,0.00,weatherlink.com 1.10,2013-11-30 21:52:00,
2013-11-30 14:07:00,76.0,46.0,30.03,West,266,6.0,8.0,35,0.00,,,0.00,weatherlink.com 1.10,2013-11-30 22:07:00,
2013-11-30 14:22:00,75.6,47.0,30.03,WSW,257,4.0,8.0,36,0.00,,,0.00,weatherlink.com 1.10,2013-11-30 22:22:00,
2013-11-30 14:37:00,75.5,47.0,30.03,West,281,2.0,9.0,36,0.00,,,0.00,weatherlink.com 1.10,2013-11-30 22:37:00,
2013-11-30 14:52:00,75.2,48.0,30.03,WNW,301,6.0,8.0,38,0.00,,,0.00,weatherlink.com 1.10,2013-11-30 22:52:00,
2013-11-30 15:07:00,74.3,49.0,30.03,WNW,284,2.0,6.0,41,0.00,,,0.00,weatherlink.com 1.10,2013-11-30 23:07:00,
2013-11-30 15:22:00,73.3,50.0,30.04,WNW,283,2.0,8.0,44,0.00,,,0.00,weatherlink.com 1.10,2013-11-30 23:22:00,
2013-11-30 15:37:00,72.6,51.0,30.04,West,266,3.0,8.0,47,0.00,,,0.00,weatherlink.com 1.10,2013-11-30 23:37:00,
2013-11-30 15:52:00,71.1,52.0,30.04,West,274,1.0,7.0,51,0.00,,,0.00,weatherlink.com 1.10,2013-11-30 23:52:00,
2013-11-30 16:07:00,70.2,52.0,30.04,West,281,3.0,7.0,52,0.00,,,0.00,weatherlink.com 1.10,2013-12-01 00:07:00,
2013-11-30 16:22:00,69.1,51.0,30.05,West,266,0.0,4.0,52,0.00,,,0.00,weatherlink.com 1.10,2013-12-01 00:22:00,
2013-11-30 16:37:00,68.3,49.0,30.05,WNW,295,0.0,5.0,50,0.00,,,0.00,weatherlink.com 1.10,2013-12-01 00:37:00,
2013-11-30 16:52:00,67.5,49.0,30.05,WNW,293,0.0,2.0,51,0.00,,,0.00,weatherlink.com 1.10,2013-12-01 00:52:00,
2013-11-30 17:07:00,66.8,49.0,30.05,WNW,288,2.0,4.0,53,0.00,,,0.00,weatherlink.com 1.10,2013-12-01 01:07:00,
2013-11-30 17:22:00,66.3,49.0,30.05,WNW,291,1.0,4.0,54,0.00,,,0.00,weatherlink.com 1.10,2013-12-01 01:22:00,
2013-11-30 17:37:00,65.7,50.0,30.06,West,281,2.0,4.0,57,0.00,,,0.00,weatherlink.com 1.10,2013-12-01 01:37:00,
2013-11-30 17:52:00,65.2,50.0,30.07,WNW,295,0.0,3.0,58,0.00,,,0.00,weatherlink.com 1.10,2013-12-01 01:52:00,
2013-11-30 18:07:00,64.7,50.0,30.07,West,268,0.0,1.0,60,0.00,,,0.00,weatherlink.com 1.10,2013-12-01 02:07:00,
2013-11-30 18:22:00,63.4,50.0,30.07,West,267,0.0,0.0,62,0.00,,,0.00,weatherlink.com 1.10,2013-12-01 02:22:00,
2013-11-30 18:37:00,62.5,50.0,30.08,West,268,0.0,0.0,64,0.00,,,0.00,weatherlink.com 1.10,2013-12-01 02:37:00,
2013-11-30 18:52:00,62.1,51.0,30.08,WNW,300,2.0,2.0,67,0.00,,,0.00,weatherlink.com 1.10,2013-12-01 02:52:00,
2013-11-30 19:07:00,61.9,51.0,30.09,NNW,337,0.0,1.0,68,0.00,,,0.00,weatherlink.com 1.10,2013-12-01 03:07:00,
2013-11-30 19:22:00,61.4,52.0,30.09,NNW,336,0.0,0.0,70,0.00,,,0.00,weatherlink.com 1.10,2013-12-01 03:22:00,
2013-11-30 19:37:00,60.5,51.0,30.09,NNW,336,0.0,0.0,72,0.00,,,0.00,weatherlink.com 1.10,2013-12-01 03:37:00,
2013-11-30 19:52:00,60.3,52.0,30.10,NNW,336,0.0,1.0,73,0.00,,,0.00,weatherlink.com 1.10,2013-12-01 03:52:00,
2013-11-30 20:07:00,59.5,52.0,30.10,NNW,336,0.0,0.0,75,0.00,,,0.00,weatherlink.com 1.10,2013-12-01 04:07:00,
2013-11-30 20:22:00,58.9,51.0,30.10,NNW,336,0.0,0.0,76,0.00,,,0.00,weatherlink.com 1.10,2013-12-01 04:22:00,
2013-11-30 20:37:00,58.6,51.0,30.11,NNW,336,0.0,0.0,77,0.00,,,0.00,weatherlink.com 1.10,2013-12-01 04:37:00,
2013-11-30 20:52:00,58.2,52.0,30.10,West,279,0.0,1.0,79,0.00,,,0.00,weatherlink.com 1.10,2013-12-01 04:52:00,
2013-11-30 21:07:00,58.0,52.0,30.11,West,279,0.0,1.0,79,0.00,,,0.00,weatherlink.com 1.10,2013-12-01 05:07:00,
2013-11-30 21:22:00,57.7,52.0,30.11,West,279,0.0,0.0,80,0.00,,,0.00,weatherlink.com 1.10,2013-12-01 05:22:00,
2013-11-30 21:37:00,57.4,52.0,30.11,West,278,0.0,0.0,81,0.00,,,0.00,weatherlink.com 1.10,2013-12-01 05:37:00,
2013-11-30 21:52:00,56.8,51.0,30.11,West,278,0.0,0.0,81,0.00,,,0.00,weatherlink.com 1.10,2013-12-01 05:52:00,
2013-11-30 22:07:00,57.1,52.0,30.11,West,279,0.0,0.0,82,0.00,,,0.00,weatherlink.com 1.10,2013-12-01 06:07:00,
2013-11-30 22:22:00,57.1,52.0,30.12,West,278,0.0,0.0,82,0.00,,,0.00,weatherlink.com 1.10,2013-12-01 06:22:00,
2013-11-30 22:37:00,56.8,51.0,30.11,West,279,0.0,1.0,82,0.00,,,0.00,weatherlink.com 1.10,2013-12-01 06:37:00,
2013-11-30 22:52:00,56.3,51.0,30.12,West,279,0.0,1.0,83,0.00,,,0.00,weatherlink.com 1.10,2013-12-01 06:52:00,
2013-11-30 23:07:00,55.7,51.0,30.12,West,278,0.0,0.0,83,0.00,,,0.00,weatherlink.com 1.10,2013-12-01 07:07:00,
2013-11-30 23:22:00,55.3,51.0,30.12,West,278,0.0,0.0,84,0.00,,,0.00,weatherlink.com 1.10,2013-12-01 07:22:00,
2013-11-30 23:37:00,55.1,51.0,30.11,West,278,0.0,0.0,85,0.00,,,0.00,weatherlink.com 1.10,2013-12-01 07:37:00,
2013-11-30 23:52:00,54.7,50.0,30.11,West,279,0.0,0.0,85,0.00,,,0.00,weatherlink.com 1.10,2013-12-01 07:52:00,